sensor_id;sensor_type;location;lat;lon;timestamp;P1;durP1;ratioP1;P2;durP2;ratioP2
18176;SDS011;9213;50.858;3.964;2023-03-01T00:00:16;14.77;;;10.50;;
18176;SDS011;9213;50.858;3.964;2023-03-01T00:02:43;11.47;;;9.43;;
18176;SDS011;9213;50.858;3.964;2023-03-01T00:05:10;14.23;;;9.67;;
18176;SDS011;9213;50.858;3.964;2023-03-01T00:07:37;13.53;;;10.03;;
18176;SDS011;9213;50.858;3.964;2023-03-01T00:10:06;14.97;;;10.20;;
18176;SDS011;9213;50.858;3.964;2023-03-01T00:12:33;13.17;;;10.10;;
18176;SDS011;9213;50.858;3.964;2023-03-01T00:15:01;14.37;;;10.00;;
18176;SDS011;9213;50.858;3.964;2023-03-01T00:17:29;13.13;;;10.23;;
18176;SDS011;9213;50.858;3.964;2023-03-01T00:19:56;12.17;;;10.20;;
18176;SDS011;9213;50.858;3.964;2023-03-01T00:22:23;14.40;;;10.37;;
18176;SDS011;9213;50.858;3.964;2023-03-01T00:24:53;13.77;;;9.90;;
18176;SDS011;9213;50.858;3.964;2023-03-01T00:27:21;12.00;;;9.43;;
18176;SDS011;9213;50.858;3.964;2023-03-01T00:29:48;11.87;;;9.43;;
18176;SDS011;9213;50.858;3.964;2023-03-01T00:32:15;12.13;;;10.20;;
18176;SDS011;9213;50.858;3.964;2023-03-01T00:34:42;12.13;;;9.20;;
18176;SDS011;9213;50.858;3.964;2023-03-01T00:37:19;15.33;;;9.80;;
18176;SDS011;9213;50.858;3.964;2023-03-01T00:39:46;13.60;;;10.07;;
18176;SDS011;9213;50.858;3.964;2023-03-01T00:42:13;13.63;;;9.60;;
18176;SDS011;9213;50.858;3.964;2023-03-01T00:44:41;13.80;;;9.97;;
18176;SDS011;9213;50.858;3.964;2023-03-01T00:47:08;13.13;;;9.50;;
18176;SDS011;9213;50.858;3.964;2023-03-01T00:49:35;12.80;;;9.97;;
18176;SDS011;9213;50.858;3.964;2023-03-01T00:52:02;11.43;;;9.23;;
18176;SDS011;9213;50.858;3.964;2023-03-01T00:54:29;14.27;;;9.40;;
18176;SDS011;9213;50.858;3.964;2023-03-01T00:56:56;13.93;;;9.37;;
18176;SDS011;9213;50.858;3.964;2023-03-01T00:59:23;10.57;;;8.67;;
18176;SDS011;9213;50.858;3.964;2023-03-01T01:01:51;10.53;;;8.80;;
18176;SDS011;9213;50.858;3.964;2023-03-01T01:04:18;10.80;;;8.13;;
18176;SDS011;9213;50.858;3.964;2023-03-01T01:06:46;12.57;;;8.80;;
18176;SDS011;9213;50.858;3.964;2023-03-01T01:09:13;12.03;;;9.40;;
18176;SDS011;9213;50.858;3.964;2023-03-01T01:11:43;11.50;;;9.03;;
18176;SDS011;9213;50.858;3.964;2023-03-01T01:14:10;12.83;;;9.47;;
18176;SDS011;9213;50.858;3.964;2023-03-01T01:16:37;13.00;;;9.57;;
18176;SDS011;9213;50.858;3.964;2023-03-01T01:19:05;12.90;;;9.63;;
18176;SDS011;9213;50.858;3.964;2023-03-01T01:21:33;14.03;;;9.20;;
18176;SDS011;9213;50.858;3.964;2023-03-01T01:23:59;12.73;;;9.53;;
18176;SDS011;9213;50.858;3.964;2023-03-01T01:26:29;12.87;;;8.93;;
18176;SDS011;9213;50.858;3.964;2023-03-01T01:28:57;13.93;;;9.67;;
18176;SDS011;9213;50.858;3.964;2023-03-01T01:31:25;13.27;;;9.43;;
18176;SDS011;9213;50.858;3.964;2023-03-01T01:33:53;14.53;;;9.30;;
18176;SDS011;9213;50.858;3.964;2023-03-01T01:36:22;13.33;;;10.10;;
18176;SDS011;9213;50.858;3.964;2023-03-01T01:38:49;14.33;;;9.67;;
18176;SDS011;9213;50.858;3.964;2023-03-01T01:41:16;11.53;;;8.57;;
18176;SDS011;9213;50.858;3.964;2023-03-01T01:43:44;17.23;;;9.87;;
18176;SDS011;9213;50.858;3.964;2023-03-01T01:46:15;13.30;;;9.87;;
18176;SDS011;9213;50.858;3.964;2023-03-01T01:48:48;12.33;;;8.97;;
18176;SDS011;9213;50.858;3.964;2023-03-01T01:51:21;13.00;;;9.47;;
18176;SDS011;9213;50.858;3.964;2023-03-01T01:53:53;11.57;;;9.03;;
18176;SDS011;9213;50.858;3.964;2023-03-01T01:56:23;13.40;;;9.83;;
18176;SDS011;9213;50.858;3.964;2023-03-01T01:58:51;13.57;;;9.60;;
18176;SDS011;9213;50.858;3.964;2023-03-01T02:01:19;13.63;;;8.63;;
18176;SDS011;9213;50.858;3.964;2023-03-01T02:03:47;13.03;;;9.20;;
18176;SDS011;9213;50.858;3.964;2023-03-01T02:06:17;11.60;;;9.27;;
18176;SDS011;9213;50.858;3.964;2023-03-01T02:08:47;12.97;;;8.80;;
18176;SDS011;9213;50.858;3.964;2023-03-01T02:11:17;12.80;;;9.40;;
18176;SDS011;9213;50.858;3.964;2023-03-01T02:13:44;12.53;;;9.20;;
18176;SDS011;9213;50.858;3.964;2023-03-01T02:16:14;11.00;;;9.30;;
18176;SDS011;9213;50.858;3.964;2023-03-01T02:18:42;15.17;;;9.17;;
18176;SDS011;9213;50.858;3.964;2023-03-01T02:21:13;14.43;;;9.60;;
18176;SDS011;9213;50.858;3.964;2023-03-01T02:23:58;14.13;;;9.10;;
18176;SDS011;9213;50.858;3.964;2023-03-01T02:26:29;12.00;;;9.67;;
18176;SDS011;9213;50.858;3.964;2023-03-01T02:29:04;16.13;;;8.47;;
18176;SDS011;9213;50.858;3.964;2023-03-01T02:31:31;12.90;;;8.53;;
18176;SDS011;9213;50.858;3.964;2023-03-01T02:34:07;12.10;;;9.07;;
18176;SDS011;9213;50.858;3.964;2023-03-01T02:36:38;11.00;;;8.57;;
18176;SDS011;9213;50.858;3.964;2023-03-01T02:39:09;14.10;;;9.70;;
18176;SDS011;9213;50.858;3.964;2023-03-01T02:41:42;12.80;;;8.77;;
18176;SDS011;9213;50.858;3.964;2023-03-01T02:44:13;14.00;;;8.77;;
18176;SDS011;9213;50.858;3.964;2023-03-01T02:46:44;10.93;;;8.97;;
18176;SDS011;9213;50.858;3.964;2023-03-01T02:49:20;12.30;;;9.07;;
18176;SDS011;9213;50.858;3.964;2023-03-01T02:54:44;12.10;;;9.43;;
18176;SDS011;9213;50.858;3.964;2023-03-01T02:57:16;12.10;;;8.77;;
18176;SDS011;9213;50.858;3.964;2023-03-01T02:59:45;12.03;;;8.23;;
18176;SDS011;9213;50.858;3.964;2023-03-01T03:02:18;12.77;;;9.10;;
18176;SDS011;9213;50.858;3.964;2023-03-01T03:05:01;12.43;;;9.43;;
18176;SDS011;9213;50.858;3.964;2023-03-01T03:07:31;13.80;;;8.80;;
18176;SDS011;9213;50.858;3.964;2023-03-01T03:09:59;12.70;;;8.93;;
18176;SDS011;9213;50.858;3.964;2023-03-01T03:12:26;10.10;;;8.47;;
18176;SDS011;9213;50.858;3.964;2023-03-01T03:14:54;12.00;;;9.63;;
18176;SDS011;9213;50.858;3.964;2023-03-01T03:17:21;13.30;;;9.33;;
18176;SDS011;9213;50.858;3.964;2023-03-01T03:19:48;12.87;;;9.30;;
18176;SDS011;9213;50.858;3.964;2023-03-01T03:22:15;15.93;;;10.67;;
18176;SDS011;9213;50.858;3.964;2023-03-01T03:24:42;13.00;;;9.17;;
18176;SDS011;9213;50.858;3.964;2023-03-01T03:27:09;12.70;;;9.27;;
18176;SDS011;9213;50.858;3.964;2023-03-01T03:29:36;16.27;;;10.00;;
18176;SDS011;9213;50.858;3.964;2023-03-01T03:32:04;13.67;;;9.90;;
18176;SDS011;9213;50.858;3.964;2023-03-01T03:34:32;10.87;;;8.93;;
18176;SDS011;9213;50.858;3.964;2023-03-01T03:36:59;12.50;;;8.53;;
18176;SDS011;9213;50.858;3.964;2023-03-01T03:39:26;13.60;;;9.17;;
18176;SDS011;9213;50.858;3.964;2023-03-01T03:41:54;12.13;;;9.63;;
18176;SDS011;9213;50.858;3.964;2023-03-01T03:44:21;13.03;;;9.27;;
18176;SDS011;9213;50.858;3.964;2023-03-01T03:46:48;12.60;;;8.97;;
18176;SDS011;9213;50.858;3.964;2023-03-01T03:49:16;13.47;;;9.40;;
18176;SDS011;9213;50.858;3.964;2023-03-01T03:51:44;14.97;;;10.03;;
18176;SDS011;9213;50.858;3.964;2023-03-01T03:54:11;14.33;;;9.47;;
18176;SDS011;9213;50.858;3.964;2023-03-01T03:56:38;13.87;;;9.10;;
18176;SDS011;9213;50.858;3.964;2023-03-01T03:59:05;13.00;;;9.97;;
18176;SDS011;9213;50.858;3.964;2023-03-01T04:01:32;13.63;;;9.37;;
18176;SDS011;9213;50.858;3.964;2023-03-01T04:03:59;15.97;;;8.80;;
18176;SDS011;9213;50.858;3.964;2023-03-01T04:06:30;12.07;;;9.07;;
18176;SDS011;9213;50.858;3.964;2023-03-01T04:08:57;17.77;;;9.97;;
18176;SDS011;9213;50.858;3.964;2023-03-01T04:11:27;11.23;;;9.03;;
18176;SDS011;9213;50.858;3.964;2023-03-01T04:13:55;12.03;;;8.90;;
18176;SDS011;9213;50.858;3.964;2023-03-01T04:16:23;15.10;;;9.43;;
18176;SDS011;9213;50.858;3.964;2023-03-01T04:18:50;11.53;;;8.73;;
18176;SDS011;9213;50.858;3.964;2023-03-01T04:21:18;14.07;;;10.00;;
18176;SDS011;9213;50.858;3.964;2023-03-01T04:23:47;14.50;;;10.03;;
18176;SDS011;9213;50.858;3.964;2023-03-01T04:26:17;13.23;;;9.73;;
18176;SDS011;9213;50.858;3.964;2023-03-01T04:28:45;13.73;;;9.27;;
18176;SDS011;9213;50.858;3.964;2023-03-01T04:31:15;12.57;;;9.53;;
18176;SDS011;9213;50.858;3.964;2023-03-01T04:33:44;19.03;;;10.30;;
18176;SDS011;9213;50.858;3.964;2023-03-01T04:36:13;13.07;;;9.20;;
18176;SDS011;9213;50.858;3.964;2023-03-01T04:38:42;14.13;;;9.80;;
18176;SDS011;9213;50.858;3.964;2023-03-01T04:41:14;15.53;;;9.70;;
18176;SDS011;9213;50.858;3.964;2023-03-01T04:43:42;11.27;;;8.77;;
18176;SDS011;9213;50.858;3.964;2023-03-01T04:46:12;13.67;;;9.83;;
18176;SDS011;9213;50.858;3.964;2023-03-01T04:48:40;15.60;;;9.63;;
18176;SDS011;9213;50.858;3.964;2023-03-01T04:51:09;16.50;;;10.23;;
18176;SDS011;9213;50.858;3.964;2023-03-01T04:53:38;14.73;;;9.73;;
18176;SDS011;9213;50.858;3.964;2023-03-01T04:56:06;12.30;;;9.10;;
18176;SDS011;9213;50.858;3.964;2023-03-01T04:58:34;15.03;;;9.77;;
18176;SDS011;9213;50.858;3.964;2023-03-01T05:01:01;13.60;;;8.80;;
18176;SDS011;9213;50.858;3.964;2023-03-01T05:03:40;12.43;;;10.10;;
18176;SDS011;9213;50.858;3.964;2023-03-01T05:06:08;16.37;;;10.47;;
18176;SDS011;9213;50.858;3.964;2023-03-01T05:08:36;14.43;;;9.57;;
18176;SDS011;9213;50.858;3.964;2023-03-01T05:11:03;12.67;;;9.67;;
18176;SDS011;9213;50.858;3.964;2023-03-01T05:13:35;12.57;;;9.67;;
18176;SDS011;9213;50.858;3.964;2023-03-01T05:16:04;12.67;;;9.57;;
18176;SDS011;9213;50.858;3.964;2023-03-01T05:18:36;12.87;;;9.63;;
18176;SDS011;9213;50.858;3.964;2023-03-01T05:21:04;12.57;;;8.93;;
18176;SDS011;9213;50.858;3.964;2023-03-01T05:23:34;12.30;;;9.30;;
18176;SDS011;9213;50.858;3.964;2023-03-01T05:26:01;15.87;;;9.33;;
18176;SDS011;9213;50.858;3.964;2023-03-01T05:28:30;11.33;;;9.57;;
18176;SDS011;9213;50.858;3.964;2023-03-01T05:30:58;13.13;;;9.40;;
18176;SDS011;9213;50.858;3.964;2023-03-01T05:33:26;14.30;;;10.30;;
18176;SDS011;9213;50.858;3.964;2023-03-01T05:35:54;14.10;;;10.00;;
18176;SDS011;9213;50.858;3.964;2023-03-01T05:38:20;16.07;;;10.93;;
18176;SDS011;9213;50.858;3.964;2023-03-01T05:40:48;14.87;;;10.33;;
18176;SDS011;9213;50.858;3.964;2023-03-01T05:43:15;16.27;;;10.33;;
18176;SDS011;9213;50.858;3.964;2023-03-01T05:45:43;13.60;;;9.80;;
18176;SDS011;9213;50.858;3.964;2023-03-01T05:48:12;14.83;;;9.50;;
18176;SDS011;9213;50.858;3.964;2023-03-01T05:50:40;14.67;;;9.40;;
18176;SDS011;9213;50.858;3.964;2023-03-01T05:53:09;17.23;;;9.50;;
18176;SDS011;9213;50.858;3.964;2023-03-01T05:55:38;14.50;;;10.63;;
18176;SDS011;9213;50.858;3.964;2023-03-01T05:58:06;12.33;;;9.73;;
18176;SDS011;9213;50.858;3.964;2023-03-01T06:00:35;12.50;;;9.30;;
18176;SDS011;9213;50.858;3.964;2023-03-01T06:03:02;13.93;;;9.73;;
18176;SDS011;9213;50.858;3.964;2023-03-01T06:05:31;14.90;;;9.83;;
18176;SDS011;9213;50.858;3.964;2023-03-01T06:07:58;15.33;;;9.83;;
18176;SDS011;9213;50.858;3.964;2023-03-01T06:10:26;15.80;;;10.20;;
18176;SDS011;9213;50.858;3.964;2023-03-01T06:12:53;19.77;;;10.53;;
18176;SDS011;9213;50.858;3.964;2023-03-01T06:15:20;16.50;;;10.37;;
18176;SDS011;9213;50.858;3.964;2023-03-01T06:17:48;14.73;;;9.43;;
18176;SDS011;9213;50.858;3.964;2023-03-01T06:20:16;12.67;;;9.57;;
18176;SDS011;9213;50.858;3.964;2023-03-01T06:22:46;15.43;;;10.10;;
18176;SDS011;9213;50.858;3.964;2023-03-01T06:25:14;13.83;;;9.77;;
18176;SDS011;9213;50.858;3.964;2023-03-01T06:27:43;17.70;;;9.97;;
18176;SDS011;9213;50.858;3.964;2023-03-01T06:30:11;11.83;;;9.27;;
18176;SDS011;9213;50.858;3.964;2023-03-01T06:32:40;19.57;;;11.07;;
18176;SDS011;9213;50.858;3.964;2023-03-01T06:35:08;15.60;;;11.53;;
18176;SDS011;9213;50.858;3.964;2023-03-01T06:37:36;16.10;;;10.60;;
18176;SDS011;9213;50.858;3.964;2023-03-01T06:40:05;17.50;;;10.67;;
18176;SDS011;9213;50.858;3.964;2023-03-01T06:42:34;16.60;;;11.03;;
18176;SDS011;9213;50.858;3.964;2023-03-01T06:45:01;16.37;;;11.27;;
18176;SDS011;9213;50.858;3.964;2023-03-01T06:47:29;14.63;;;9.97;;
18176;SDS011;9213;50.858;3.964;2023-03-01T06:49:56;17.57;;;10.80;;
18176;SDS011;9213;50.858;3.964;2023-03-01T06:52:23;17.13;;;11.67;;
18176;SDS011;9213;50.858;3.964;2023-03-01T06:54:50;15.53;;;10.63;;
18176;SDS011;9213;50.858;3.964;2023-03-01T06:57:18;15.40;;;10.07;;
18176;SDS011;9213;50.858;3.964;2023-03-01T06:59:46;14.80;;;9.87;;
18176;SDS011;9213;50.858;3.964;2023-03-01T07:02:13;14.33;;;9.90;;
18176;SDS011;9213;50.858;3.964;2023-03-01T07:04:41;13.83;;;9.80;;
18176;SDS011;9213;50.858;3.964;2023-03-01T07:07:08;12.73;;;9.23;;
18176;SDS011;9213;50.858;3.964;2023-03-01T07:09:38;15.03;;;10.30;;
18176;SDS011;9213;50.858;3.964;2023-03-01T07:12:05;13.90;;;9.27;;
18176;SDS011;9213;50.858;3.964;2023-03-01T07:14:34;15.10;;;9.60;;
18176;SDS011;9213;50.858;3.964;2023-03-01T07:17:01;12.97;;;9.10;;
18176;SDS011;9213;50.858;3.964;2023-03-01T07:19:28;15.23;;;9.73;;
18176;SDS011;9213;50.858;3.964;2023-03-01T07:21:55;14.63;;;9.83;;
18176;SDS011;9213;50.858;3.964;2023-03-01T07:24:22;13.80;;;9.87;;
18176;SDS011;9213;50.858;3.964;2023-03-01T07:26:49;13.47;;;9.60;;
18176;SDS011;9213;50.858;3.964;2023-03-01T07:29:17;13.90;;;9.70;;
18176;SDS011;9213;50.858;3.964;2023-03-01T07:31:45;17.77;;;11.00;;
18176;SDS011;9213;50.858;3.964;2023-03-01T07:34:12;14.80;;;10.47;;
18176;SDS011;9213;50.858;3.964;2023-03-01T07:36:39;14.20;;;9.33;;
18176;SDS011;9213;50.858;3.964;2023-03-01T07:39:08;13.80;;;9.70;;
18176;SDS011;9213;50.858;3.964;2023-03-01T07:41:35;13.53;;;9.73;;
18176;SDS011;9213;50.858;3.964;2023-03-01T07:44:02;13.03;;;9.73;;
18176;SDS011;9213;50.858;3.964;2023-03-01T07:46:29;12.17;;;9.10;;
18176;SDS011;9213;50.858;3.964;2023-03-01T07:48:58;11.93;;;9.50;;
18176;SDS011;9213;50.858;3.964;2023-03-01T07:51:25;13.23;;;9.50;;
18176;SDS011;9213;50.858;3.964;2023-03-01T07:53:52;14.00;;;10.43;;
18176;SDS011;9213;50.858;3.964;2023-03-01T07:56:19;17.17;;;9.70;;
18176;SDS011;9213;50.858;3.964;2023-03-01T07:58:47;13.70;;;9.30;;
18176;SDS011;9213;50.858;3.964;2023-03-01T08:01:14;12.30;;;9.43;;
18176;SDS011;9213;50.858;3.964;2023-03-01T08:03:43;14.13;;;9.77;;
18176;SDS011;9213;50.858;3.964;2023-03-01T08:06:12;12.20;;;9.07;;
18176;SDS011;9213;50.858;3.964;2023-03-01T08:08:39;14.40;;;9.83;;
18176;SDS011;9213;50.858;3.964;2023-03-01T08:11:07;12.77;;;8.97;;
18176;SDS011;9213;50.858;3.964;2023-03-01T08:13:36;12.03;;;8.57;;
18176;SDS011;9213;50.858;3.964;2023-03-01T08:16:03;11.17;;;8.93;;
18176;SDS011;9213;50.858;3.964;2023-03-01T08:18:32;12.13;;;9.20;;
18176;SDS011;9213;50.858;3.964;2023-03-01T08:21:01;13.43;;;8.83;;
18176;SDS011;9213;50.858;3.964;2023-03-01T08:23:30;13.87;;;9.53;;
18176;SDS011;9213;50.858;3.964;2023-03-01T08:26:02;11.77;;;9.40;;
18176;SDS011;9213;50.858;3.964;2023-03-01T08:28:31;9.90;;;8.23;;
18176;SDS011;9213;50.858;3.964;2023-03-01T08:30:58;12.10;;;8.93;;
18176;SDS011;9213;50.858;3.964;2023-03-01T08:33:25;11.03;;;9.23;;
18176;SDS011;9213;50.858;3.964;2023-03-01T08:35:52;11.37;;;9.77;;
18176;SDS011;9213;50.858;3.964;2023-03-01T08:38:18;11.07;;;8.50;;
18176;SDS011;9213;50.858;3.964;2023-03-01T08:40:47;14.53;;;9.23;;
18176;SDS011;9213;50.858;3.964;2023-03-01T08:43:14;11.90;;;9.57;;
18176;SDS011;9213;50.858;3.964;2023-03-01T08:45:42;11.70;;;8.97;;
18176;SDS011;9213;50.858;3.964;2023-03-01T08:48:09;12.80;;;9.27;;
18176;SDS011;9213;50.858;3.964;2023-03-01T08:50:36;11.50;;;8.80;;
18176;SDS011;9213;50.858;3.964;2023-03-01T08:53:03;10.93;;;8.93;;
18176;SDS011;9213;50.858;3.964;2023-03-01T08:55:30;12.63;;;9.73;;
18176;SDS011;9213;50.858;3.964;2023-03-01T08:57:58;10.83;;;9.03;;
18176;SDS011;9213;50.858;3.964;2023-03-01T09:00:25;11.90;;;9.23;;
18176;SDS011;9213;50.858;3.964;2023-03-01T09:02:52;12.87;;;9.77;;
18176;SDS011;9213;50.858;3.964;2023-03-01T09:05:19;11.20;;;9.30;;
18176;SDS011;9213;50.858;3.964;2023-03-01T09:07:46;10.17;;;8.47;;
18176;SDS011;9213;50.858;3.964;2023-03-01T09:10:13;10.97;;;9.50;;
18176;SDS011;9213;50.858;3.964;2023-03-01T09:12:40;14.00;;;9.80;;
18176;SDS011;9213;50.858;3.964;2023-03-01T09:15:09;14.13;;;9.17;;
18176;SDS011;9213;50.858;3.964;2023-03-01T09:17:36;14.40;;;9.67;;
18176;SDS011;9213;50.858;3.964;2023-03-01T09:20:04;12.27;;;9.90;;
18176;SDS011;9213;50.858;3.964;2023-03-01T09:22:32;14.47;;;9.20;;
18176;SDS011;9213;50.858;3.964;2023-03-01T09:25:00;11.03;;;9.73;;
18176;SDS011;9213;50.858;3.964;2023-03-01T09:27:26;11.70;;;9.13;;
18176;SDS011;9213;50.858;3.964;2023-03-01T09:29:53;11.90;;;8.93;;
18176;SDS011;9213;50.858;3.964;2023-03-01T09:32:22;12.07;;;9.33;;
18176;SDS011;9213;50.858;3.964;2023-03-01T09:34:49;12.27;;;9.03;;
18176;SDS011;9213;50.858;3.964;2023-03-01T09:37:30;13.23;;;9.93;;
18176;SDS011;9213;50.858;3.964;2023-03-01T09:39:58;12.47;;;9.27;;
18176;SDS011;9213;50.858;3.964;2023-03-01T09:42:25;11.50;;;9.30;;
18176;SDS011;9213;50.858;3.964;2023-03-01T09:44:57;11.83;;;8.60;;
18176;SDS011;9213;50.858;3.964;2023-03-01T09:47:29;14.47;;;9.53;;
18176;SDS011;9213;50.858;3.964;2023-03-01T09:49:58;10.70;;;8.77;;
18176;SDS011;9213;50.858;3.964;2023-03-01T09:52:33;13.07;;;9.37;;
18176;SDS011;9213;50.858;3.964;2023-03-01T09:55:07;13.13;;;9.37;;
18176;SDS011;9213;50.858;3.964;2023-03-01T09:57:38;13.17;;;9.23;;
18176;SDS011;9213;50.858;3.964;2023-03-01T10:00:17;10.00;;;8.70;;
18176;SDS011;9213;50.858;3.964;2023-03-01T10:02:56;11.40;;;8.97;;
18176;SDS011;9213;50.858;3.964;2023-03-01T10:05:31;11.60;;;9.63;;
18176;SDS011;9213;50.858;3.964;2023-03-01T10:08:21;14.40;;;10.33;;
18176;SDS011;9213;50.858;3.964;2023-03-01T10:10:56;12.23;;;10.03;;
18176;SDS011;9213;50.858;3.964;2023-03-01T10:13:24;12.53;;;10.20;;
18176;SDS011;9213;50.858;3.964;2023-03-01T10:15:55;11.40;;;9.57;;
18176;SDS011;9213;50.858;3.964;2023-03-01T10:18:25;11.80;;;9.43;;
18176;SDS011;9213;50.858;3.964;2023-03-01T10:20:55;10.40;;;9.23;;
18176;SDS011;9213;50.858;3.964;2023-03-01T10:23:24;12.30;;;9.43;;
18176;SDS011;9213;50.858;3.964;2023-03-01T10:25:56;14.00;;;9.77;;
18176;SDS011;9213;50.858;3.964;2023-03-01T10:28:38;13.80;;;9.37;;
18176;SDS011;9213;50.858;3.964;2023-03-01T10:31:11;12.23;;;8.83;;
18176;SDS011;9213;50.858;3.964;2023-03-01T10:33:41;10.20;;;8.77;;
18176;SDS011;9213;50.858;3.964;2023-03-01T10:36:08;12.87;;;8.93;;
18176;SDS011;9213;50.858;3.964;2023-03-01T10:38:47;10.10;;;8.43;;
18176;SDS011;9213;50.858;3.964;2023-03-01T10:41:17;11.93;;;9.00;;
18176;SDS011;9213;50.858;3.964;2023-03-01T10:43:44;11.37;;;9.47;;
18176;SDS011;9213;50.858;3.964;2023-03-01T10:46:22;9.80;;;8.57;;
18176;SDS011;9213;50.858;3.964;2023-03-01T10:51:46;9.93;;;8.27;;
18176;SDS011;9213;50.858;3.964;2023-03-01T10:54:16;10.03;;;8.60;;
18176;SDS011;9213;50.858;3.964;2023-03-01T10:56:45;12.00;;;8.73;;
18176;SDS011;9213;50.858;3.964;2023-03-01T10:59:19;12.63;;;9.40;;
18176;SDS011;9213;50.858;3.964;2023-03-01T11:02:02;9.50;;;8.33;;
18176;SDS011;9213;50.858;3.964;2023-03-01T11:04:39;10.17;;;8.37;;
18176;SDS011;9213;50.858;3.964;2023-03-01T11:07:21;10.10;;;8.47;;
18176;SDS011;9213;50.858;3.964;2023-03-01T11:09:48;12.40;;;8.40;;
18176;SDS011;9213;50.858;3.964;2023-03-01T11:12:16;9.67;;;8.40;;
18176;SDS011;9213;50.858;3.964;2023-03-01T11:14:46;8.97;;;7.83;;
18176;SDS011;9213;50.858;3.964;2023-03-01T11:17:15;10.43;;;8.57;;
18176;SDS011;9213;50.858;3.964;2023-03-01T11:19:54;11.53;;;8.13;;
18176;SDS011;9213;50.858;3.964;2023-03-01T11:22:29;10.23;;;8.13;;
18176;SDS011;9213;50.858;3.964;2023-03-01T11:24:59;11.90;;;8.13;;
18176;SDS011;9213;50.858;3.964;2023-03-01T11:27:28;9.97;;;7.83;;
18176;SDS011;9213;50.858;3.964;2023-03-01T11:29:58;10.10;;;8.40;;
18176;SDS011;9213;50.858;3.964;2023-03-01T11:32:31;10.37;;;8.20;;
18176;SDS011;9213;50.858;3.964;2023-03-01T11:35:04;12.27;;;8.53;;
18176;SDS011;9213;50.858;3.964;2023-03-01T11:37:37;10.17;;;7.97;;
18176;SDS011;9213;50.858;3.964;2023-03-01T11:40:11;11.30;;;8.43;;
18176;SDS011;9213;50.858;3.964;2023-03-01T11:42:47;10.60;;;8.63;;
18176;SDS011;9213;50.858;3.964;2023-03-01T11:45:18;8.77;;;7.87;;
18176;SDS011;9213;50.858;3.964;2023-03-01T11:47:53;10.00;;;7.77;;
18176;SDS011;9213;50.858;3.964;2023-03-01T11:50:33;11.67;;;8.77;;
18176;SDS011;9213;50.858;3.964;2023-03-01T11:55:58;12.47;;;9.00;;
18176;SDS011;9213;50.858;3.964;2023-03-01T11:58:38;9.07;;;8.17;;
18176;SDS011;9213;50.858;3.964;2023-03-01T12:01:30;12.20;;;8.30;;
18176;SDS011;9213;50.858;3.964;2023-03-01T12:04:08;9.43;;;8.07;;
18176;SDS011;9213;50.858;3.964;2023-03-01T12:06:52;9.70;;;8.20;;
18176;SDS011;9213;50.858;3.964;2023-03-01T12:09:27;12.13;;;9.00;;
18176;SDS011;9213;50.858;3.964;2023-03-01T12:15:23;9.13;;;8.20;;
18176;SDS011;9213;50.858;3.964;2023-03-01T12:18:13;10.60;;;8.70;;
18176;SDS011;9213;50.858;3.964;2023-03-01T12:21:03;12.13;;;8.70;;
18176;SDS011;9213;50.858;3.964;2023-03-01T12:23:49;11.53;;;8.50;;
18176;SDS011;9213;50.858;3.964;2023-03-01T12:26:34;10.27;;;8.67;;
18176;SDS011;9213;50.858;3.964;2023-03-01T12:29:14;10.53;;;8.70;;
18176;SDS011;9213;50.858;3.964;2023-03-01T12:31:57;14.67;;;8.37;;
18176;SDS011;9213;50.858;3.964;2023-03-01T12:34:44;10.20;;;8.70;;
18176;SDS011;9213;50.858;3.964;2023-03-01T12:37:40;10.53;;;8.20;;
18176;SDS011;9213;50.858;3.964;2023-03-01T12:40:21;9.30;;;8.30;;
18176;SDS011;9213;50.858;3.964;2023-03-01T12:43:16;9.03;;;7.73;;
18176;SDS011;9213;50.858;3.964;2023-03-01T12:45:54;9.37;;;8.40;;
18176;SDS011;9213;50.858;3.964;2023-03-01T12:48:36;10.43;;;8.37;;
18176;SDS011;9213;50.858;3.964;2023-03-01T12:51:10;9.10;;;8.00;;
18176;SDS011;9213;50.858;3.964;2023-03-01T12:53:40;9.80;;;7.90;;
18176;SDS011;9213;50.858;3.964;2023-03-01T12:56:11;9.87;;;7.70;;
18176;SDS011;9213;50.858;3.964;2023-03-01T12:58:45;11.30;;;8.13;;
18176;SDS011;9213;50.858;3.964;2023-03-01T13:01:31;11.20;;;8.23;;
18176;SDS011;9213;50.858;3.964;2023-03-01T13:04:24;9.87;;;7.30;;
18176;SDS011;9213;50.858;3.964;2023-03-01T13:07:04;10.67;;;7.53;;
18176;SDS011;9213;50.858;3.964;2023-03-01T13:09:45;13.53;;;10.10;;
18176;SDS011;9213;50.858;3.964;2023-03-01T13:15:29;9.63;;;7.67;;
18176;SDS011;9213;50.858;3.964;2023-03-01T13:17:59;10.00;;;7.47;;
18176;SDS011;9213;50.858;3.964;2023-03-01T13:20:30;10.43;;;8.10;;
18176;SDS011;9213;50.858;3.964;2023-03-01T13:23:00;8.87;;;7.97;;
18176;SDS011;9213;50.858;3.964;2023-03-01T13:25:30;10.47;;;7.63;;
18176;SDS011;9213;50.858;3.964;2023-03-01T13:30:57;8.43;;;7.20;;
18176;SDS011;9213;50.858;3.964;2023-03-01T13:33:39;9.17;;;8.17;;
18176;SDS011;9213;50.858;3.964;2023-03-01T13:36:08;8.50;;;7.47;;
18176;SDS011;9213;50.858;3.964;2023-03-01T13:38:39;10.60;;;8.50;;
18176;SDS011;9213;50.858;3.964;2023-03-01T13:41:13;10.60;;;8.37;;
18176;SDS011;9213;50.858;3.964;2023-03-01T13:43:41;8.67;;;7.77;;
18176;SDS011;9213;50.858;3.964;2023-03-01T13:46:12;9.40;;;7.50;;
18176;SDS011;9213;50.858;3.964;2023-03-01T13:48:44;9.50;;;8.40;;
18176;SDS011;9213;50.858;3.964;2023-03-01T13:51:13;11.20;;;8.27;;
18176;SDS011;9213;50.858;3.964;2023-03-01T13:53:41;7.97;;;7.17;;
18176;SDS011;9213;50.858;3.964;2023-03-01T13:56:12;9.00;;;8.10;;
18176;SDS011;9213;50.858;3.964;2023-03-01T13:58:46;10.83;;;8.07;;
18176;SDS011;9213;50.858;3.964;2023-03-01T14:01:22;8.53;;;7.63;;
18176;SDS011;9213;50.858;3.964;2023-03-01T14:03:51;9.20;;;7.10;;
18176;SDS011;9213;50.858;3.964;2023-03-01T14:06:20;8.90;;;7.63;;
18176;SDS011;9213;50.858;3.964;2023-03-01T14:08:49;9.47;;;8.00;;
18176;SDS011;9213;50.858;3.964;2023-03-01T14:11:29;9.40;;;7.73;;
18176;SDS011;9213;50.858;3.964;2023-03-01T14:14:29;10.33;;;7.80;;
18176;SDS011;9213;50.858;3.964;2023-03-01T14:17:09;9.00;;;7.10;;
18176;SDS011;9213;50.858;3.964;2023-03-01T14:19:55;8.23;;;7.20;;
18176;SDS011;9213;50.858;3.964;2023-03-01T14:22:25;9.27;;;6.87;;
18176;SDS011;9213;50.858;3.964;2023-03-01T14:24:54;8.57;;;7.20;;
18176;SDS011;9213;50.858;3.964;2023-03-01T14:27:24;8.90;;;7.07;;
18176;SDS011;9213;50.858;3.964;2023-03-01T14:29:55;10.50;;;7.77;;
18176;SDS011;9213;50.858;3.964;2023-03-01T14:32:26;9.20;;;7.33;;
18176;SDS011;9213;50.858;3.964;2023-03-01T14:34:55;8.70;;;7.23;;
18176;SDS011;9213;50.858;3.964;2023-03-01T14:37:24;10.83;;;7.80;;
18176;SDS011;9213;50.858;3.964;2023-03-01T14:39:53;11.27;;;8.10;;
18176;SDS011;9213;50.858;3.964;2023-03-01T14:42:22;8.43;;;7.17;;
18176;SDS011;9213;50.858;3.964;2023-03-01T14:44:52;9.73;;;8.53;;
18176;SDS011;9213;50.858;3.964;2023-03-01T14:47:25;9.17;;;7.73;;
18176;SDS011;9213;50.858;3.964;2023-03-01T14:49:57;9.93;;;7.03;;
18176;SDS011;9213;50.858;3.964;2023-03-01T14:52:27;11.67;;;7.70;;
18176;SDS011;9213;50.858;3.964;2023-03-01T14:54:59;10.03;;;7.37;;
18176;SDS011;9213;50.858;3.964;2023-03-01T14:57:29;9.87;;;7.77;;
18176;SDS011;9213;50.858;3.964;2023-03-01T14:59:57;8.83;;;7.57;;
18176;SDS011;9213;50.858;3.964;2023-03-01T15:02:30;8.50;;;6.83;;
18176;SDS011;9213;50.858;3.964;2023-03-01T15:04:59;8.57;;;7.23;;
18176;SDS011;9213;50.858;3.964;2023-03-01T15:07:30;8.43;;;7.53;;
18176;SDS011;9213;50.858;3.964;2023-03-01T15:10:00;10.30;;;7.60;;
18176;SDS011;9213;50.858;3.964;2023-03-01T15:12:35;9.27;;;7.63;;
18176;SDS011;9213;50.858;3.964;2023-03-01T15:15:29;8.47;;;7.27;;
18176;SDS011;9213;50.858;3.964;2023-03-01T15:18:03;9.77;;;7.27;;
18176;SDS011;9213;50.858;3.964;2023-03-01T15:20:33;12.37;;;7.90;;
18176;SDS011;9213;50.858;3.964;2023-03-01T15:23:03;11.93;;;7.37;;
18176;SDS011;9213;50.858;3.964;2023-03-01T15:25:30;9.37;;;7.63;;